sensor_id;sensor_type;location;lat;lon;timestamp;temperature;humidity
74484;SHT31;62942;52.462;10.846;2024-01-30T00:00:31;0.5;94
74484;SHT31;62942;52.462;10.846;2024-01-30T00:01:31;0.5;94
74484;SHT31;62942;52.462;10.846;2024-01-30T00:02:40;0.5;94.1
74484;SHT31;62942;52.462;10.846;2024-01-30T00:03:41;0.5;94.1
74484;SHT31;62942;52.462;10.846;2024-01-30T00:04:51;0.5;94.2
74484;SHT31;62942;52.462;10.846;2024-01-30T00:06:00;0.5;94.2
74484;SHT31;62942;52.462;10.846;2024-01-30T00:07:01;0.5;94.2
74484;SHT31;62942;52.462;10.846;2024-01-30T00:08:01;0.4;94.2
74484;SHT31;62942;52.462;10.846;2024-01-30T00:09:11;0.5;94.2
74484;SHT31;62942;52.462;10.846;2024-01-30T00:10:20;0.5;94.2
74484;SHT31;62942;52.462;10.846;2024-01-30T00:11:30;0.4;94.2
74484;SHT31;62942;52.462;10.846;2024-01-30T00:12:40;0.4;94.2
74484;SHT31;62942;52.462;10.846;2024-01-30T00:13:40;0.4;94.2
74484;SHT31;62942;52.462;10.846;2024-01-30T00:14:50;0.4;94.2
74484;SHT31;62942;52.462;10.846;2024-01-30T00:16:01;0.3;94.1
74484;SHT31;62942;52.462;10.846;2024-01-30T00:17:00;0.3;94.1
74484;SHT31;62942;52.462;10.846;2024-01-30T00:18:10;0.3;94.1
74484;SHT31;62942;52.462;10.846;2024-01-30T00:19:20;0.3;94.1
74484;SHT31;62942;52.462;10.846;2024-01-30T00:20:30;0.3;94.2
74484;SHT31;62942;52.462;10.846;2024-01-30T00:21:30;0.3;94.2
74484;SHT31;62942;52.462;10.846;2024-01-30T00:22:40;0.3;94.2
74484;SHT31;62942;52.462;10.846;2024-01-30T00:23:40;0.3;94.2
74484;SHT31;62942;52.462;10.846;2024-01-30T00:24:40;0.3;94.3
74484;SHT31;62942;52.462;10.846;2024-01-30T00:25:50;0.3;94.3
74484;SHT31;62942;52.462;10.846;2024-01-30T00:27:00;0.3;94.3
74484;SHT31;62942;52.462;10.846;2024-01-30T00:28:10;0.2;94.3
74484;SHT31;62942;52.462;10.846;2024-01-30T00:29:20;0.2;94.4
74484;SHT31;62942;52.462;10.846;2024-01-30T00:30:30;0.2;94.4
74484;SHT31;62942;52.462;10.846;2024-01-30T00:31:40;0.2;94.5
74484;SHT31;62942;52.462;10.846;2024-01-30T00:32:41;0.2;94.5
74484;SHT31;62942;52.462;10.846;2024-01-30T00:33:50;0.2;94.5
74484;SHT31;62942;52.462;10.846;2024-01-30T00:35:00;0.2;94.5
74484;SHT31;62942;52.462;10.846;2024-01-30T00:36:10;0.2;94.5
74484;SHT31;62942;52.462;10.846;2024-01-30T00:37:20;0.2;94.6
74484;SHT31;62942;52.462;10.846;2024-01-30T00:38:30;0.2;94.6
74484;SHT31;62942;52.462;10.846;2024-01-30T00:39:30;0.2;94.7
74484;SHT31;62942;52.462;10.846;2024-01-30T00:40:40;0.2;94.7
74484;SHT31;62942;52.462;10.846;2024-01-30T00:41:40;0.2;94.8
74484;SHT31;62942;52.462;10.846;2024-01-30T00:42:40;0.2;94.7
74484;SHT31;62942;52.462;10.846;2024-01-30T00:43:50;0.3;94.8
74484;SHT31;62942;52.462;10.846;2024-01-30T00:44:50;0.3;94.9
74484;SHT31;62942;52.462;10.846;2024-01-30T00:46:00;0.3;94.9
74484;SHT31;62942;52.462;10.846;2024-01-30T00:47:10;0.3;95.1
74484;SHT31;62942;52.462;10.846;2024-01-30T00:48:10;0.3;95.1
74484;SHT31;62942;52.462;10.846;2024-01-30T00:49:10;0.3;95.1
74484;SHT31;62942;52.462;10.846;2024-01-30T00:50:20;0.3;95.3
74484;SHT31;62942;52.462;10.846;2024-01-30T00:51:30;0.4;95.3
74484;SHT31;62942;52.462;10.846;2024-01-30T00:52:40;0.4;95.4
74484;SHT31;62942;52.462;10.846;2024-01-30T00:53:50;0.5;95.3
74484;SHT31;62942;52.462;10.846;2024-01-30T00:54:50;0.5;95.3
74484;SHT31;62942;52.462;10.846;2024-01-30T00:55:50;0.5;95.4
74484;SHT31;62942;52.462;10.846;2024-01-30T00:57:00;0.5;95.4
74484;SHT31;62942;52.462;10.846;2024-01-30T00:58:10;0.5;95.4
74484;SHT31;62942;52.462;10.846;2024-01-30T00:59:20;0.5;95.5
74484;SHT31;62942;52.462;10.846;2024-01-30T01:00:31;0.6;95.5
74484;SHT31;62942;52.462;10.846;2024-01-30T01:01:40;0.5;95.5
74484;SHT31;62942;52.462;10.846;2024-01-30T01:02:50;0.5;95.5
74484;SHT31;62942;52.462;10.846;2024-01-30T01:03:50;0.5;95.5
74484;SHT31;62942;52.462;10.846;2024-01-30T01:05:00;0.4;95.5
74484;SHT31;62942;52.462;10.846;2024-01-30T01:06:00;0.4;95.5
74484;SHT31;62942;52.462;10.846;2024-01-30T01:07:10;0.4;95.5
74484;SHT31;62942;52.462;10.846;2024-01-30T01:08:10;0.3;95.5
74484;SHT31;62942;52.462;10.846;2024-01-30T01:09:11;0.3;95.4
74484;SHT31;62942;52.462;10.846;2024-01-30T01:10:20;0.3;95.4
74484;SHT31;62942;52.462;10.846;2024-01-30T01:11:30;0.2;95.4
74484;SHT31;62942;52.462;10.846;2024-01-30T01:12:40;0.2;95.3
74484;SHT31;62942;52.462;10.846;2024-01-30T01:13:40;0.2;95.3
74484;SHT31;62942;52.462;10.846;2024-01-30T01:14:50;0.2;95.3
74484;SHT31;62942;52.462;10.846;2024-01-30T01:16:00;0.1;95.2
74484;SHT31;62942;52.462;10.846;2024-01-30T01:17:11;0.2;95.2
74484;SHT31;62942;52.462;10.846;2024-01-30T01:18:10;0.1;95.2
74484;SHT31;62942;52.462;10.846;2024-01-30T01:19:20;0.1;95.2
74484;SHT31;62942;52.462;10.846;2024-01-30T01:20:20;0.1;95.2
74484;SHT31;62942;52.462;10.846;2024-01-30T01:21:30;0.1;95.3
74484;SHT31;62942;52.462;10.846;2024-01-30T01:22:40;0.1;95.2
74484;SHT31;62942;52.462;10.846;2024-01-30T01:23:40;0.1;95.3
74484;SHT31;62942;52.462;10.846;2024-01-30T01:24:50;0;95.3
74484;SHT31;62942;52.462;10.846;2024-01-30T01:26:00;0;95.3
74484;SHT31;62942;52.462;10.846;2024-01-30T01:27:00;0;95.3
74484;SHT31;62942;52.462;10.846;2024-01-30T01:28:00;0;95.4
74484;SHT31;62942;52.462;10.846;2024-01-30T01:29:10;0;95.4
74484;SHT31;62942;52.462;10.846;2024-01-30T01:30:20;0;95.4
74484;SHT31;62942;52.462;10.846;2024-01-30T01:31:20;0;95.4
74484;SHT31;62942;52.462;10.846;2024-01-30T01:32:30;0;95.4
74484;SHT31;62942;52.462;10.846;2024-01-30T01:33:40;0;95.4
74484;SHT31;62942;52.462;10.846;2024-01-30T01:34:50;0;95.5
74484;SHT31;62942;52.462;10.846;2024-01-30T01:35:50;0;95.5
74484;SHT31;62942;52.462;10.846;2024-01-30T01:37:00;0;95.6
74484;SHT31;62942;52.462;10.846;2024-01-30T01:38:10;0;95.6
74484;SHT31;62942;52.462;10.846;2024-01-30T01:39:21;-0.1;95.6
74484;SHT31;62942;52.462;10.846;2024-01-30T01:40:30;-0.1;95.6
74484;SHT31;62942;52.462;10.846;2024-01-30T01:41:40;-0.1;95.6
74484;SHT31;62942;52.462;10.846;2024-01-30T01:42:50;-0.2;95.6
74484;SHT31;62942;52.462;10.846;2024-01-30T01:44:00;-0.2;95.6
74484;SHT31;62942;52.462;10.846;2024-01-30T01:45:10;-0.2;95.6
74484;SHT31;62942;52.462;10.846;2024-01-30T01:46:20;-0.2;95.6
74484;SHT31;62942;52.462;10.846;2024-01-30T01:47:30;-0.2;95.6
74484;SHT31;62942;52.462;10.846;2024-01-30T01:48:40;-0.2;95.6
74484;SHT31;62942;52.462;10.846;2024-01-30T01:49:40;-0.2;95.6
74484;SHT31;62942;52.462;10.846;2024-01-30T01:50:51;-0.2;95.6
74484;SHT31;62942;52.462;10.846;2024-01-30T01:52:00;-0.2;95.6
74484;SHT31;62942;52.462;10.846;2024-01-30T01:53:10;-0.2;95.7
74484;SHT31;62942;52.462;10.846;2024-01-30T01:54:20;-0.1;95.7
74484;SHT31;62942;52.462;10.846;2024-01-30T01:55:30;-0.1;95.7
74484;SHT31;62942;52.462;10.846;2024-01-30T01:56:40;-0.1;95.7
74484;SHT31;62942;52.462;10.846;2024-01-30T01:57:51;-0.1;95.8
74484;SHT31;62942;52.462;10.846;2024-01-30T01:59:03;-0.1;95.8
74484;SHT31;62942;52.462;10.846;2024-01-30T02:00:12;-0.1;95.8
74484;SHT31;62942;52.462;10.846;2024-01-30T02:01:20;-0.1;95.9
74484;SHT31;62942;52.462;10.846;2024-01-30T02:02:30;-0.1;95.9
74484;SHT31;62942;52.462;10.846;2024-01-30T02:03:30;-0.1;95.9
74484;SHT31;62942;52.462;10.846;2024-01-30T02:04:40;-0.1;95.9
74484;SHT31;62942;52.462;10.846;2024-01-30T02:05:50;-0.1;95.9
74484;SHT31;62942;52.462;10.846;2024-01-30T02:06:50;-0.2;95.9
74484;SHT31;62942;52.462;10.846;2024-01-30T02:08:00;-0.2;95.9
74484;SHT31;62942;52.462;10.846;2024-01-30T02:09:10;-0.2;95.9
74484;SHT31;62942;52.462;10.846;2024-01-30T02:10:20;-0.2;96
74484;SHT31;62942;52.462;10.846;2024-01-30T02:11:30;-0.2;95.9
74484;SHT31;62942;52.462;10.846;2024-01-30T02:12:40;-0.2;95.9
74484;SHT31;62942;52.462;10.846;2024-01-30T02:13:40;-0.3;95.9
74484;SHT31;62942;52.462;10.846;2024-01-30T02:14:50;-0.3;95.9
74484;SHT31;62942;52.462;10.846;2024-01-30T02:16:00;-0.3;95.9
74484;SHT31;62942;52.462;10.846;2024-01-30T02:17:00;-0.4;95.9
74484;SHT31;62942;52.462;10.846;2024-01-30T02:18:10;-0.3;95.9
74484;SHT31;62942;52.462;10.846;2024-01-30T02:19:10;-0.4;96
74484;SHT31;62942;52.462;10.846;2024-01-30T02:20:20;-0.4;96
74484;SHT31;62942;52.462;10.846;2024-01-30T02:21:20;-0.4;96
74484;SHT31;62942;52.462;10.846;2024-01-30T02:22:30;-0.3;95.9
74484;SHT31;62942;52.462;10.846;2024-01-30T02:23:30;-0.3;95.9
74484;SHT31;62942;52.462;10.846;2024-01-30T02:24:40;-0.3;96
74484;SHT31;62942;52.462;10.846;2024-01-30T02:25:50;-0.2;96
74484;SHT31;62942;52.462;10.846;2024-01-30T02:27:00;-0.3;95.9
74484;SHT31;62942;52.462;10.846;2024-01-30T02:28:10;-0.3;95.9
74484;SHT31;62942;52.462;10.846;2024-01-30T02:29:20;-0.3;96
74484;SHT31;62942;52.462;10.846;2024-01-30T02:30:20;-0.3;96
74484;SHT31;62942;52.462;10.846;2024-01-30T02:31:30;-0.3;96.1
74484;SHT31;62942;52.462;10.846;2024-01-30T02:32:40;-0.4;96.1
74484;SHT31;62942;52.462;10.846;2024-01-30T02:33:40;-0.4;96.1
74484;SHT31;62942;52.462;10.846;2024-01-30T02:34:50;-0.4;96.1
74484;SHT31;62942;52.462;10.846;2024-01-30T02:36:00;-0.4;96.1
74484;SHT31;62942;52.462;10.846;2024-01-30T02:37:10;-0.4;96.1
74484;SHT31;62942;52.462;10.846;2024-01-30T02:38:10;-0.5;96.1
74484;SHT31;62942;52.462;10.846;2024-01-30T02:39:20;-0.4;96.1
74484;SHT31;62942;52.462;10.846;2024-01-30T02:40:20;-0.4;96.1
74484;SHT31;62942;52.462;10.846;2024-01-30T02:41:30;-0.4;96.1
74484;SHT31;62942;52.462;10.846;2024-01-30T02:42:30;-0.4;96.1
74484;SHT31;62942;52.462;10.846;2024-01-30T02:43:40;-0.4;96.1
74484;SHT31;62942;52.462;10.846;2024-01-30T02:44:50;-0.4;96.1
74484;SHT31;62942;52.462;10.846;2024-01-30T02:46:00;-0.4;96.1
74484;SHT31;62942;52.462;10.846;2024-01-30T02:47:10;-0.4;96.1
74484;SHT31;62942;52.462;10.846;2024-01-30T02:48:20;-0.5;96.2
74484;SHT31;62942;52.462;10.846;2024-01-30T02:49:20;-0.5;96.2
74484;SHT31;62942;52.462;10.846;2024-01-30T02:50:30;-0.5;96.2
74484;SHT31;62942;52.462;10.846;2024-01-30T02:51:40;-0.5;96.2
74484;SHT31;62942;52.462;10.846;2024-01-30T02:52:50;-0.5;96.2
74484;SHT31;62942;52.462;10.846;2024-01-30T02:54:00;-0.6;96.2
74484;SHT31;62942;52.462;10.846;2024-01-30T02:55:10;-0.5;96.3
74484;SHT31;62942;52.462;10.846;2024-01-30T02:56:20;-0.5;96.3
74484;SHT31;62942;52.462;10.846;2024-01-30T02:57:30;-0.5;96.3
74484;SHT31;62942;52.462;10.846;2024-01-30T02:58:40;-0.5;96.3
74484;SHT31;62942;52.462;10.846;2024-01-30T02:59:50;-0.5;96.3
74484;SHT31;62942;52.462;10.846;2024-01-30T03:01:00;-0.5;96.2
74484;SHT31;62942;52.462;10.846;2024-01-30T03:02:10;-0.5;96.2
74484;SHT31;62942;52.462;10.846;2024-01-30T03:03:10;-0.5;96.3
74484;SHT31;62942;52.462;10.846;2024-01-30T03:04:20;-0.4;96.3
74484;SHT31;62942;52.462;10.846;2024-01-30T03:05:30;-0.4;96.3
74484;SHT31;62942;52.462;10.846;2024-01-30T03:06:30;-0.4;96.3
74484;SHT31;62942;52.462;10.846;2024-01-30T03:07:40;-0.4;96.3
74484;SHT31;62942;52.462;10.846;2024-01-30T03:08:50;-0.4;96.4
74484;SHT31;62942;52.462;10.846;2024-01-30T03:10:00;-0.3;96.4
74484;SHT31;62942;52.462;10.846;2024-01-30T03:11:10;-0.3;96.4
74484;SHT31;62942;52.462;10.846;2024-01-30T03:12:20;-0.3;96.4
74484;SHT31;62942;52.462;10.846;2024-01-30T03:13:30;-0.3;96.5
74484;SHT31;62942;52.462;10.846;2024-01-30T03:14:30;-0.3;96.5
74484;SHT31;62942;52.462;10.846;2024-01-30T03:15:40;-0.3;96.4
74484;SHT31;62942;52.462;10.846;2024-01-30T03:16:50;-0.4;96.5
74484;SHT31;62942;52.462;10.846;2024-01-30T03:18:01;-0.4;96.5
74484;SHT31;62942;52.462;10.846;2024-01-30T03:19:00;-0.4;96.5
74484;SHT31;62942;52.462;10.846;2024-01-30T03:20:10;-0.4;96.5
74484;SHT31;62942;52.462;10.846;2024-01-30T03:21:20;-0.4;96.5
74484;SHT31;62942;52.462;10.846;2024-01-30T03:22:30;-0.4;96.5
74484;SHT31;62942;52.462;10.846;2024-01-30T03:23:40;-0.4;96.5
74484;SHT31;62942;52.462;10.846;2024-01-30T03:24:50;-0.4;96.5
74484;SHT31;62942;52.462;10.846;2024-01-30T03:26:00;-0.4;96.5
74484;SHT31;62942;52.462;10.846;2024-01-30T03:27:10;-0.4;96.5
74484;SHT31;62942;52.462;10.846;2024-01-30T03:28:20;-0.3;96.5
74484;SHT31;62942;52.462;10.846;2024-01-30T03:29:30;-0.3;96.5
74484;SHT31;62942;52.462;10.846;2024-01-30T03:30:40;-0.3;96.5
74484;SHT31;62942;52.462;10.846;2024-01-30T03:31:50;-0.3;96.5
74484;SHT31;62942;52.462;10.846;2024-01-30T03:32:50;-0.3;96.5
74484;SHT31;62942;52.462;10.846;2024-01-30T03:34:00;-0.3;96.5
74484;SHT31;62942;52.462;10.846;2024-01-30T03:35:00;-0.3;96.5
74484;SHT31;62942;52.462;10.846;2024-01-30T03:36:10;-0.3;96.5
74484;SHT31;62942;52.462;10.846;2024-01-30T03:37:20;-0.3;96.5
74484;SHT31;62942;52.462;10.846;2024-01-30T03:38:20;-0.3;96.5
74484;SHT31;62942;52.462;10.846;2024-01-30T03:39:30;-0.4;96.5
74484;SHT31;62942;52.462;10.846;2024-01-30T03:40:40;-0.4;96.5
74484;SHT31;62942;52.462;10.846;2024-01-30T03:41:50;-0.4;96.5
74484;SHT31;62942;52.462;10.846;2024-01-30T03:43:00;-0.4;96.5
74484;SHT31;62942;52.462;10.846;2024-01-30T03:44:10;-0.4;96.5
74484;SHT31;62942;52.462;10.846;2024-01-30T03:45:20;-0.4;96.5
74484;SHT31;62942;52.462;10.846;2024-01-30T03:46:30;-0.4;96.5
74484;SHT31;62942;52.462;10.846;2024-01-30T03:47:30;-0.3;96.5
74484;SHT31;62942;52.462;10.846;2024-01-30T03:48:40;-0.3;96.5
74484;SHT31;62942;52.462;10.846;2024-01-30T03:49:50;-0.4;96.4
74484;SHT31;62942;52.462;10.846;2024-01-30T03:51:00;-0.3;96.4
74484;SHT31;62942;52.462;10.846;2024-01-30T03:52:10;-0.3;96.4
74484;SHT31;62942;52.462;10.846;2024-01-30T03:53:20;-0.4;96.4
74484;SHT31;62942;52.462;10.846;2024-01-30T03:54:30;-0.3;96.4
74484;SHT31;62942;52.462;10.846;2024-01-30T03:55:40;-0.4;96.4
74484;SHT31;62942;52.462;10.846;2024-01-30T03:56:40;-0.3;96.4
74484;SHT31;62942;52.462;10.846;2024-01-30T03:57:50;-0.2;96.4
74484;SHT31;62942;52.462;10.846;2024-01-30T03:59:00;-0.2;96.4
74484;SHT31;62942;52.462;10.846;2024-01-30T04:00:10;-0.2;96.3
74484;SHT31;62942;52.462;10.846;2024-01-30T04:01:20;-0.2;96.3
74484;SHT31;62942;52.462;10.846;2024-01-30T04:02:20;-0.2;96.3
74484;SHT31;62942;52.462;10.846;2024-01-30T04:03:30;-0.2;96.3
74484;SHT31;62942;52.462;10.846;2024-01-30T04:04:40;-0.1;96.3
74484;SHT31;62942;52.462;10.846;2024-01-30T04:05:51;-0.1;96.3
74484;SHT31;62942;52.462;10.846;2024-01-30T04:07:00;-0.1;96.2
74484;SHT31;62942;52.462;10.846;2024-01-30T04:08:10;-0.1;96.2
74484;SHT31;62942;52.462;10.846;2024-01-30T04:09:20;-0.1;96.2
74484;SHT31;62942;52.462;10.846;2024-01-30T04:10:30;-0.1;96.2
74484;SHT31;62942;52.462;10.846;2024-01-30T04:11:40;-0.1;96.2
74484;SHT31;62942;52.462;10.846;2024-01-30T04:12:50;-0.1;96.2
74484;SHT31;62942;52.462;10.846;2024-01-30T04:14:00;-0.1;96.2
74484;SHT31;62942;52.462;10.846;2024-01-30T04:15:10;-0.1;96.2
74484;SHT31;62942;52.462;10.846;2024-01-30T04:16:20;-0.1;96.2
74484;SHT31;62942;52.462;10.846;2024-01-30T04:17:30;-0.1;96.2
74484;SHT31;62942;52.462;10.846;2024-01-30T04:18:40;-0.1;96.2
74484;SHT31;62942;52.462;10.846;2024-01-30T04:19:50;-0.2;96.2
74484;SHT31;62942;52.462;10.846;2024-01-30T04:21:00;-0.2;96.2
74484;SHT31;62942;52.462;10.846;2024-01-30T04:22:10;-0.2;96.2
74484;SHT31;62942;52.462;10.846;2024-01-30T04:23:20;-0.2;96.2
74484;SHT31;62942;52.462;10.846;2024-01-30T04:24:30;-0.3;96.2
74484;SHT31;62942;52.462;10.846;2024-01-30T04:25:40;-0.3;96.2
74484;SHT31;62942;52.462;10.846;2024-01-30T04:26:40;-0.3;96.1
74484;SHT31;62942;52.462;10.846;2024-01-30T04:27:50;-0.3;96.1
74484;SHT31;62942;52.462;10.846;2024-01-30T04:29:00;-0.3;96.1
74484;SHT31;62942;52.462;10.846;2024-01-30T04:30:10;-0.3;96.1
74484;SHT31;62942;52.462;10.846;2024-01-30T04:31:20;-0.3;96.1
74484;SHT31;62942;52.462;10.846;2024-01-30T04:32:20;-0.3;96.1
74484;SHT31;62942;52.462;10.846;2024-01-30T04:33:30;-0.3;96.1
74484;SHT31;62942;52.462;10.846;2024-01-30T04:34:30;-0.3;96.1
74484;SHT31;62942;52.462;10.846;2024-01-30T04:35:40;-0.3;96.1
74484;SHT31;62942;52.462;10.846;2024-01-30T04:36:50;-0.3;96.1
74484;SHT31;62942;52.462;10.846;2024-01-30T04:37:51;-0.3;96.1
74484;SHT31;62942;52.462;10.846;2024-01-30T04:39:00;-0.3;96.1
74484;SHT31;62942;52.462;10.846;2024-01-30T04:40:00;-0.3;96.1
74484;SHT31;62942;52.462;10.846;2024-01-30T04:41:00;-0.3;96.1
74484;SHT31;62942;52.462;10.846;2024-01-30T04:42:10;-0.3;96.1
74484;SHT31;62942;52.462;10.846;2024-01-30T04:43:10;-0.3;96.1
74484;SHT31;62942;52.462;10.846;2024-01-30T04:44:20;-0.3;96.1
74484;SHT31;62942;52.462;10.846;2024-01-30T04:45:20;-0.3;96
74484;SHT31;62942;52.462;10.846;2024-01-30T04:46:30;-0.3;96.1
74484;SHT31;62942;52.462;10.846;2024-01-30T04:47:40;-0.3;96.1
74484;SHT31;62942;52.462;10.846;2024-01-30T04:48:50;-0.3;96.1
74484;SHT31;62942;52.462;10.846;2024-01-30T04:49:51;-0.3;96.1
74484;SHT31;62942;52.462;10.846;2024-01-30T04:51:00;-0.3;96.1
74484;SHT31;62942;52.462;10.846;2024-01-30T04:52:10;-0.3;96.1
74484;SHT31;62942;52.462;10.846;2024-01-30T04:53:20;-0.3;96.2
74484;SHT31;62942;52.462;10.846;2024-01-30T04:54:20;-0.3;96.1
74484;SHT31;62942;52.462;10.846;2024-01-30T04:55:30;-0.3;96.1
74484;SHT31;62942;52.462;10.846;2024-01-30T04:56:30;-0.2;96.1
74484;SHT31;62942;52.462;10.846;2024-01-30T04:57:40;-0.2;96.1
74484;SHT31;62942;52.462;10.846;2024-01-30T04:58:50;-0.2;96.1
74484;SHT31;62942;52.462;10.846;2024-01-30T05:00:00;-0.2;96.1
74484;SHT31;62942;52.462;10.846;2024-01-30T05:01:14;-0.3;96.1
74484;SHT31;62942;52.462;10.846;2024-01-30T05:02:20;-0.3;96.1
74484;SHT31;62942;52.462;10.846;2024-01-30T05:03:32;-0.3;96.1
74484;SHT31;62942;52.462;10.846;2024-01-30T05:04:40;-0.3;96.1
74484;SHT31;62942;52.462;10.846;2024-01-30T05:05:40;-0.3;96.1
74484;SHT31;62942;52.462;10.846;2024-01-30T05:06:50;-0.4;96.1
74484;SHT31;62942;52.462;10.846;2024-01-30T05:07:50;-0.4;96.1
74484;SHT31;62942;52.462;10.846;2024-01-30T05:08:50;-0.4;96.1
74484;SHT31;62942;52.462;10.846;2024-01-30T05:09:50;-0.4;96.1
74484;SHT31;62942;52.462;10.846;2024-01-30T05:11:00;-0.4;96.1
74484;SHT31;62942;52.462;10.846;2024-01-30T05:12:00;-0.4;96
74484;SHT31;62942;52.462;10.846;2024-01-30T05:13:00;-0.4;96.1
74484;SHT31;62942;52.462;10.846;2024-01-30T05:14:10;-0.3;96.1
74484;SHT31;62942;52.462;10.846;2024-01-30T05:15:20;-0.3;96.1
74484;SHT31;62942;52.462;10.846;2024-01-30T05:16:30;-0.3;96.1
74484;SHT31;62942;52.462;10.846;2024-01-30T05:17:40;-0.3;96
74484;SHT31;62942;52.462;10.846;2024-01-30T05:18:40;-0.3;96
74484;SHT31;62942;52.462;10.846;2024-01-30T05:19:50;-0.4;96
74484;SHT31;62942;52.462;10.846;2024-01-30T05:21:00;-0.4;96
74484;SHT31;62942;52.462;10.846;2024-01-30T05:22:00;-0.4;96
74484;SHT31;62942;52.462;10.846;2024-01-30T05:23:10;-0.4;96.1
74484;SHT31;62942;52.462;10.846;2024-01-30T05:24:10;-0.4;96.1
74484;SHT31;62942;52.462;10.846;2024-01-30T05:25:10;-0.4;96.1
74484;SHT31;62942;52.462;10.846;2024-01-30T05:26:20;-0.4;96.1
74484;SHT31;62942;52.462;10.846;2024-01-30T05:27:20;-0.4;96.1
74484;SHT31;62942;52.462;10.846;2024-01-30T05:28:30;-0.4;96.1
74484;SHT31;62942;52.462;10.846;2024-01-30T05:29:40;-0.3;96.1
74484;SHT31;62942;52.462;10.846;2024-01-30T05:30:50;-0.3;96.1
74484;SHT31;62942;52.462;10.846;2024-01-30T05:32:00;-0.3;96.1
74484;SHT31;62942;52.462;10.846;2024-01-30T05:33:10;-0.3;96.1
74484;SHT31;62942;52.462;10.846;2024-01-30T05:34:20;-0.3;96.1
74484;SHT31;62942;52.462;10.846;2024-01-30T05:35:20;-0.4;96.1
74484;SHT31;62942;52.462;10.846;2024-01-30T05:36:30;-0.4;96.1
74484;SHT31;62942;52.462;10.846;2024-01-30T05:37:40;-0.4;96.1
74484;SHT31;62942;52.462;10.846;2024-01-30T05:38:50;-0.4;96.1
74484;SHT31;62942;52.462;10.846;2024-01-30T05:40:00;-0.4;96.1
74484;SHT31;62942;52.462;10.846;2024-01-30T05:41:00;-0.4;96.1
74484;SHT31;62942;52.462;10.846;2024-01-30T05:42:00;-0.4;96.1
74484;SHT31;62942;52.462;10.846;2024-01-30T05:43:10;-0.4;96.1
74484;SHT31;62942;52.462;10.846;2024-01-30T05:44:20;-0.4;96.1
74484;SHT31;62942;52.462;10.846;2024-01-30T05:45:30;-0.4;96.1
74484;SHT31;62942;52.462;10.846;2024-01-30T05:46:40;-0.5;96.1
74484;SHT31;62942;52.462;10.846;2024-01-30T05:47:40;-0.4;96.1
74484;SHT31;62942;52.462;10.846;2024-01-30T05:48:40;-0.4;96.1
74484;SHT31;62942;52.462;10.846;2024-01-30T05:49:50;-0.5;96.1
74484;SHT31;62942;52.462;10.846;2024-01-30T05:50:50;-0.4;96.1
74484;SHT31;62942;52.462;10.846;2024-01-30T05:52:01;-0.4;96.1
74484;SHT31;62942;52.462;10.846;2024-01-30T05:53:10;-0.4;96.2
74484;SHT31;62942;52.462;10.846;2024-01-30T05:54:10;-0.4;96.2
74484;SHT31;62942;52.462;10.846;2024-01-30T05:55:20;-0.4;96.1
74484;SHT31;62942;52.462;10.846;2024-01-30T05:56:30;-0.4;96.2
74484;SHT31;62942;52.462;10.846;2024-01-30T05:57:30;-0.4;96.1
74484;SHT31;62942;52.462;10.846;2024-01-30T05:58:40;-0.4;96.2
74484;SHT31;62942;52.462;10.846;2024-01-30T05:59:40;-0.4;96.2
74484;SHT31;62942;52.462;10.846;2024-01-30T06:00:50;-0.4;96.2
74484;SHT31;62942;52.462;10.846;2024-01-30T06:02:00;-0.5;96.2
74484;SHT31;62942;52.462;10.846;2024-01-30T06:03:10;-0.5;96.2
74484;SHT31;62942;52.462;10.846;2024-01-30T06:04:20;-0.5;96.2
74484;SHT31;62942;52.462;10.846;2024-01-30T06:05:30;-0.5;96.2
74484;SHT31;62942;52.462;10.846;2024-01-30T06:06:30;-0.5;96.2
74484;SHT31;62942;52.462;10.846;2024-01-30T06:07:40;-0.5;96.2
74484;SHT31;62942;52.462;10.846;2024-01-30T06:08:50;-0.5;96.2
74484;SHT31;62942;52.462;10.846;2024-01-30T06:10:00;-0.5;96.3
74484;SHT31;62942;52.462;10.846;2024-01-30T06:11:10;-0.5;96.2
74484;SHT31;62942;52.462;10.846;2024-01-30T06:12:10;-0.4;96.3
74484;SHT31;62942;52.462;10.846;2024-01-30T06:13:20;-0.4;96.3
74484;SHT31;62942;52.462;10.846;2024-01-30T06:14:30;-0.4;96.3
74484;SHT31;62942;52.462;10.846;2024-01-30T06:15:30;-0.5;96.3
74484;SHT31;62942;52.462;10.846;2024-01-30T06:16:30;-0.5;96.3
74484;SHT31;62942;52.462;10.846;2024-01-30T06:17:30;-0.5;96.3
74484;SHT31;62942;52.462;10.846;2024-01-30T06:18:40;-0.5;96.3
74484;SHT31;62942;52.462;10.846;2024-01-30T06:19:50;-0.5;96.3
74484;SHT31;62942;52.462;10.846;2024-01-30T06:21:00;-0.5;96.3
74484;SHT31;62942;52.462;10.846;2024-01-30T06:22:10;-0.5;96.3
74484;SHT31;62942;52.462;10.846;2024-01-30T06:23:10;-0.5;96.4
74484;SHT31;62942;52.462;10.846;2024-01-30T06:24:20;-0.5;96.4
74484;SHT31;62942;52.462;10.846;2024-01-30T06:25:20;-0.5;96.4
74484;SHT31;62942;52.462;10.846;2024-01-30T06:26:30;-0.5;96.4
74484;SHT31;62942;52.462;10.846;2024-01-30T06:27:40;-0.5;96.4
74484;SHT31;62942;52.462;10.846;2024-01-30T06:28:50;-0.5;96.4
74484;SHT31;62942;52.462;10.846;2024-01-30T06:29:50;-0.5;96.4
74484;SHT31;62942;52.462;10.846;2024-01-30T06:31:00;-0.5;96.4
74484;SHT31;62942;52.462;10.846;2024-01-30T06:32:00;-0.5;96.4
74484;SHT31;62942;52.462;10.846;2024-01-30T06:33:11;-0.6;96.5
74484;SHT31;62942;52.462;10.846;2024-01-30T06:34:10;-0.6;96.5
74484;SHT31;62942;52.462;10.846;2024-01-30T06:35:20;-0.6;96.5
74484;SHT31;62942;52.462;10.846;2024-01-30T06:36:30;-0.6;96.5
74484;SHT31;62942;52.462;10.846;2024-01-30T06:37:30;-0.6;96.5
74484;SHT31;62942;52.462;10.846;2024-01-30T06:38:40;-0.6;96.5
74484;SHT31;62942;52.462;10.846;2024-01-30T06:39:40;-0.6;96.5
74484;SHT31;62942;52.462;10.846;2024-01-30T06:40:50;-0.6;96.5
74484;SHT31;62942;52.462;10.846;2024-01-30T06:42:00;-0.6;96.6
74484;SHT31;62942;52.462;10.846;2024-01-30T06:43:00;-0.6;96.6
74484;SHT31;62942;52.462;10.846;2024-01-30T06:44:10;-0.6;96.5
74484;SHT31;62942;52.462;10.846;2024-01-30T06:45:20;-0.6;96.5
74484;SHT31;62942;52.462;10.846;2024-01-30T06:46:30;-0.6;96.5
74484;SHT31;62942;52.462;10.846;2024-01-30T06:47:40;-0.6;96.5
74484;SHT31;62942;52.462;10.846;2024-01-30T06:48:50;-0.6;96.5
74484;SHT31;62942;52.462;10.846;2024-01-30T06:50:00;-0.6;96.5
74484;SHT31;62942;52.462;10.846;2024-01-30T06:51:10;-0.5;96.5
74484;SHT31;62942;52.462;10.846;2024-01-30T06:52:20;-0.6;96.5
74484;SHT31;62942;52.462;10.846;2024-01-30T06:53:20;-0.5;96.6
74484;SHT31;62942;52.462;10.846;2024-01-30T06:54:30;-0.5;96.6
74484;SHT31;62942;52.462;10.846;2024-01-30T06:55:40;-0.6;96.6
74484;SHT31;62942;52.462;10.846;2024-01-30T06:56:40;-0.6;96.6
74484;SHT31;62942;52.462;10.846;2024-01-30T06:57:50;-0.6;96.7
74484;SHT31;62942;52.462;10.846;2024-01-30T06:59:00;-0.6;96.7
74484;SHT31;62942;52.462;10.846;2024-01-30T07:00:10;-0.6;96.7
74484;SHT31;62942;52.462;10.846;2024-01-30T07:01:20;-0.6;96.7
74484;SHT31;62942;52.462;10.846;2024-01-30T07:02:20;-0.6;96.7
74484;SHT31;62942;52.462;10.846;2024-01-30T07:03:30;-0.6;96.7
74484;SHT31;62942;52.462;10.846;2024-01-30T07:04:40;-0.6;96.7
74484;SHT31;62942;52.462;10.846;2024-01-30T07:05:40;-0.6;96.7
74484;SHT31;62942;52.462;10.846;2024-01-30T07:06:50;-0.6;96.7
74484;SHT31;62942;52.462;10.846;2024-01-30T07:07:50;-0.6;96.7
74484;SHT31;62942;52.462;10.846;2024-01-30T07:08:50;-0.6;96.7
74484;SHT31;62942;52.462;10.846;2024-01-30T07:10:00;-0.6;96.7
74484;SHT31;62942;52.462;10.846;2024-01-30T07:11:10;-0.6;96.7
74484;SHT31;62942;52.462;10.846;2024-01-30T07:12:10;-0.6;96.8
74484;SHT31;62942;52.462;10.846;2024-01-30T07:13:20;-0.6;96.8
74484;SHT31;62942;52.462;10.846;2024-01-30T07:14:20;-0.6;96.8